Time;durP1;ratioP1;P1;durP2;ratioP2;P2;SDS_P1;SDS_P2;PMS_P1;PMS_P2;Temp;Humidity;BMP_temperature;BMP_pressure;BME280_temperature;BME280_humidity;BME280_pressure;Samples;Min_cycle;Max_cycle;Signal;HPM_P1;HPM_P2
2021/07/13 00:01:04;;;;;;;21.13;12.57;;;;;;;;;;3590187;40;20028;-62
2021/07/13 00:03:29;;;;;;;14.73;12.70;;;;;;;;;;3591542;39;20472;-62
2021/07/13 00:05:55;;;;;;;15.63;11.93;;;;;;;;;;3591150;39;20032;-62
2021/07/13 00:08:20;;;;;;;18.80;12.85;;;;;;;;;;3591346;40;20420;-62
2021/07/13 00:10:45;;;;;;;20.57;13.13;;;;;;;;;;3591238;39;20105;-62
2021/07/13 00:13:10;;;;;;;16.23;13.10;;;;;;;;;;3589841;40;20273;-61
2021/07/13 00:15:36;;;;;;;16.20;11.73;;;;;;;;;;3590996;39;20344;-61
2021/07/13 00:18:01;;;;;;;15.60;12.77;;;;;;;;;;3590183;39;20263;-62
2021/07/13 00:20:26;;;;;;;15.37;12.73;;;;;;;;;;3590263;39;20117;-62
2021/07/13 00:22:52;;;;;;;16.87;13.20;;;;;;;;;;3590260;40;20125;-62
2021/07/13 00:25:17;;;;;;;19.38;12.63;;;;;;;;;;3590886;39;20032;-61
2021/07/13 00:27:42;;;;;;;20.20;13.27;;;;;;;;;;3588534;40;20067;-61
2021/07/13 00:30:07;;;;;;;19.27;12.87;;;;;;;;;;3589827;40;20031;-62
2021/07/13 00:32:33;;;;;;;17.30;12.43;;;;;;;;;;3590109;40;20091;-62
2021/07/13 00:34:58;;;;;;;17.10;12.90;;;;;;;;;;3589827;40;20063;-62
2021/07/13 00:37:23;;;;;;;18.70;13.33;;;;;;;;;;3589648;39;20507;-62
2021/07/13 00:39:48;;;;;;;17.13;13.10;;;;;;;;;;3589707;40;20032;-62
2021/07/13 00:42:13;;;;;;;17.25;13.45;;;;;;;;;;3588249;40;20039;-62
2021/07/13 00:44:39;;;;;;;18.30;12.68;;;;;;;;;;3588843;40;20095;-62
2021/07/13 00:47:04;;;;;;;18.53;12.53;;;;;;;;;;3589824;39;20028;-62
2021/07/13 00:49:29;;;;;;;20.43;12.97;;;;;;;;;;3589693;39;20044;-62
2021/07/13 00:51:54;;;;;;;15.63;12.20;;;;;;;;;;3589289;39;20028;-62
2021/07/13 00:54:19;;;;;;;20.63;13.03;;;;;;;;;;3589681;40;20105;-62
2021/07/13 00:56:45;;;;;;;22.10;13.07;;;;;;;;;;3588215;40;20274;-62
2021/07/13 00:59:10;;;;;;;17.97;12.13;;;;;;;;;;3589963;40;20036;-62
2021/07/13 01:01:35;;;;;;;13.97;11.00;;;;;;;;;;3588201;40;20582;-62
2021/07/13 01:04:00;;;;;;;13.43;11.27;;;;;;;;;;3588889;39;20028;-62
2021/07/13 01:06:26;;;;;;;15.13;10.98;;;;;;;;;;3587962;40;20024;-62
2021/07/13 01:08:51;;;;;;;13.77;11.00;;;;;;;;;;3587997;40;20032;-62
2021/07/13 01:11:16;;;;;;;14.20;11.33;;;;;;;;;;3588752;39;20953;-62
2021/07/13 01:13:42;;;;;;;17.92;11.80;;;;;;;;;;3589384;39;20024;-62
2021/07/13 01:16:07;;;;;;;15.83;11.87;;;;;;;;;;3589529;39;20032;-62
2021/07/13 01:18:32;;;;;;;17.03;12.70;;;;;;;;;;3589263;40;20028;-62
2021/07/13 01:20:57;;;;;;;18.40;12.30;;;;;;;;;;3589316;40;20593;-62
2021/07/13 01:23:22;;;;;;;19.87;13.53;;;;;;;;;;3588013;40;20039;-62
2021/07/13 01:25:48;;;;;;;20.83;13.87;;;;;;;;;;3588233;40;20063;-62
2021/07/13 01:28:13;;;;;;;22.30;13.90;;;;;;;;;;3590169;39;20036;-62
2021/07/13 01:30:38;;;;;;;23.80;15.23;;;;;;;;;;3590866;40;20819;-62
2021/07/13 01:33:03;;;;;;;22.55;14.27;;;;;;;;;;3590365;39;20436;-62
2021/07/13 01:35:29;;;;;;;20.67;15.67;;;;;;;;;;3590774;39;20375;-62
2021/07/13 01:37:54;;;;;;;19.97;15.83;;;;;;;;;;3590364;39;20258;-62
2021/07/13 01:40:19;;;;;;;26.27;16.20;;;;;;;;;;3590317;39;20040;-62
2021/07/13 01:42:44;;;;;;;19.87;16.20;;;;;;;;;;3589353;40;20031;-62
2021/07/13 01:45:09;;;;;;;21.93;16.03;;;;;;;;;;3590924;40;21203;-62
2021/07/13 01:47:35;;;;;;;20.25;15.90;;;;;;;;;;3590869;40;20020;-62
2021/07/13 01:50:00;;;;;;;23.60;16.20;;;;;;;;;;3591520;39;20034;-62
2021/07/13 01:52:26;;;;;;;29.17;17.05;;;;;;;;;;3591665;40;20481;-62
2021/07/13 01:54:51;;;;;;;20.10;15.63;;;;;;;;;;3591576;39;20117;-62
2021/07/13 01:57:16;;;;;;;22.60;16.33;;;;;;;;;;3591512;39;20091;-62
2021/07/13 01:59:42;;;;;;;20.50;15.43;;;;;;;;;;3591623;39;20107;-62
2021/07/13 02:02:07;;;;;;;22.15;16.35;;;;;;;;;;3592375;39;20121;-62
2021/07/13 02:04:32;;;;;;;23.87;16.50;;;;;;;;;;3592252;40;20035;-62
2021/07/13 02:06:57;;;;;;;24.73;16.27;;;;;;;;;;3590046;40;20032;-61
2021/07/13 02:09:22;;;;;;;21.87;15.70;;;;;;;;;;3591394;39;20024;-61
2021/07/13 02:11:48;;;;;;;22.95;14.77;;;;;;;;;;3590244;40;20040;-61
2021/07/13 02:14:13;;;;;;;23.17;16.23;;;;;;;;;;3591039;39;20729;-61
2021/07/13 02:16:39;;;;;;;23.50;16.47;;;;;;;;;;3590994;39;20487;-61
2021/07/13 02:19:04;;;;;;;20.48;16.10;;;;;;;;;;3587672;39;20118;-61
2021/07/13 02:21:29;;;;;;;20.50;16.27;;;;;;;;;;3590530;40;20028;-61
2021/07/13 02:23:54;;;;;;;21.97;17.03;;;;;;;;;;3591228;40;20020;-61
2021/07/13 02:26:19;;;;;;;25.23;16.57;;;;;;;;;;3591080;39;21034;-61
2021/07/13 02:28:45;;;;;;;36.87;18.00;;;;;;;;;;3589530;40;20838;-61
2021/07/13 02:31:11;;;;;;;22.17;17.17;;;;;;;;;;3591331;39;20036;-61
2021/07/13 02:33:36;;;;;;;25.02;17.50;;;;;;;;;;3590834;40;20028;-61
2021/07/13 02:36:01;;;;;;;30.70;18.00;;;;;;;;;;3590958;40;20043;-61
2021/07/13 02:38:26;;;;;;;26.87;18.97;;;;;;;;;;3589533;40;20044;-61
2021/07/13 02:40:52;;;;;;;28.73;18.53;;;;;;;;;;3590384;39;20101;-61
2021/07/13 02:43:17;;;;;;;27.53;19.20;;;;;;;;;;3589862;40;20040;-61
2021/07/13 02:45:42;;;;;;;27.13;19.23;;;;;;;;;;3590712;39;20040;-61
2021/07/13 02:48:07;;;;;;;28.50;21.13;;;;;;;;;;3590500;39;20037;-61
2021/07/13 02:50:32;;;;;;;27.07;18.83;;;;;;;;;;3590758;40;20246;-61
2021/07/13 02:52:58;;;;;;;26.67;18.37;;;;;;;;;;3590394;40;20764;-61
2021/07/13 02:55:23;;;;;;;27.13;19.67;;;;;;;;;;3590772;40;20289;-61
2021/07/13 02:57:48;;;;;;;26.38;18.55;;;;;;;;;;3590312;39;20647;-61
2021/07/13 03:00:13;;;;;;;26.33;18.63;;;;;;;;;;3590844;39;20032;-61
2021/07/13 03:02:39;;;;;;;26.67;18.40;;;;;;;;;;3590539;40;20395;-61
2021/07/13 03:05:04;;;;;;;24.43;18.57;;;;;;;;;;3590636;40;20263;-61
2021/07/13 03:07:29;;;;;;;26.20;18.63;;;;;;;;;;3590728;39;20732;-61
2021/07/13 03:09:54;;;;;;;27.00;18.60;;;;;;;;;;3589938;39;20035;-61
2021/07/13 03:12:20;;;;;;;25.20;18.87;;;;;;;;;;3590330;40;20054;-61
2021/07/13 03:14:45;;;;;;;29.83;20.03;;;;;;;;;;3590600;40;20273;-62
2021/07/13 03:17:10;;;;;;;32.47;20.43;;;;;;;;;;3589778;40;20031;-62
2021/07/13 03:19:35;;;;;;;27.77;19.35;;;;;;;;;;3590532;40;20038;-62
2021/07/13 03:22:01;;;;;;;24.93;19.00;;;;;;;;;;3589536;40;20028;-62
2021/07/13 03:24:26;;;;;;;26.10;19.00;;;;;;;;;;3590039;40;20549;-62
2021/07/13 03:26:51;;;;;;;26.53;20.20;;;;;;;;;;3589063;40;20405;-62
2021/07/13 03:29:16;;;;;;;25.90;18.93;;;;;;;;;;3590591;40;20024;-62
2021/07/13 03:31:41;;;;;;;26.90;18.83;;;;;;;;;;3588800;40;20044;-62
2021/07/13 03:34:06;;;;;;;26.37;18.80;;;;;;;;;;3589253;40;20669;-62
2021/07/13 03:36:32;;;;;;;26.97;18.73;;;;;;;;;;3590111;39;20040;-62
2021/07/13 03:38:57;;;;;;;24.30;18.00;;;;;;;;;;3590248;40;20069;-62
2021/07/13 03:41:22;;;;;;;25.73;17.93;;;;;;;;;;3589568;40;20032;-62
2021/07/13 03:43:47;;;;;;;25.63;18.43;;;;;;;;;;3590315;39;20386;-62
2021/07/13 03:46:13;;;;;;;25.47;18.47;;;;;;;;;;3588999;40;20773;-62
2021/07/13 03:48:38;;;;;;;24.97;18.53;;;;;;;;;;3590624;39;20032;-62
2021/07/13 03:51:03;;;;;;;22.93;17.97;;;;;;;;;;3589861;39;20016;-62
2021/07/13 03:53:28;;;;;;;27.17;19.87;;;;;;;;;;3590144;39;20788;-62
2021/07/13 03:55:53;;;;;;;26.77;20.50;;;;;;;;;;3589658;39;20413;-62
2021/07/13 03:58:19;;;;;;;29.60;19.90;;;;;;;;;;3590298;39;20340;-62
2021/07/13 04:00:44;;;;;;;30.33;21.23;;;;;;;;;;3589954;39;20258;-62
2021/07/13 04:03:09;;;;;;;27.03;20.20;;;;;;;;;;3590112;40;20024;-62
2021/07/13 04:05:35;;;;;;;29.70;21.90;;;;;;;;;;3588280;40;20860;-62
2021/07/13 04:08:00;;;;;;;26.55;19.90;;;;;;;;;;3590798;39;20071;-62
2021/07/13 04:10:25;;;;;;;30.37;21.97;;;;;;;;;;3589134;39;20032;-62
2021/07/13 04:12:51;;;;;;;25.13;19.23;;;;;;;;;;3589565;39;20025;-62
2021/07/13 04:15:16;;;;;;;27.53;19.03;;;;;;;;;;3588439;40;20086;-62
2021/07/13 04:17:41;;;;;;;31.23;20.13;;;;;;;;;;3586683;40;20028;-62
2021/07/13 04:20:06;;;;;;;27.10;19.57;;;;;;;;;;3589512;40;20357;-62
2021/07/13 04:22:31;;;;;;;26.57;19.53;;;;;;;;;;3589756;40;20266;-67
2021/07/13 04:24:57;;;;;;;28.20;21.10;;;;;;;;;;3588597;39;20028;-67
2021/07/13 04:27:22;;;;;;;30.03;20.60;;;;;;;;;;3589158;39;20032;-67
2021/07/13 04:29:47;;;;;;;30.23;20.73;;;;;;;;;;3589571;40;20521;-67
2021/07/13 04:32:12;;;;;;;27.20;19.03;;;;;;;;;;3589380;40;20670;-67
2021/07/13 04:34:37;;;;;;;27.53;19.93;;;;;;;;;;3589550;39;20032;-67
2021/07/13 04:37:02;;;;;;;29.07;19.40;;;;;;;;;;3589633;40;20036;-67
2021/07/13 04:39:28;;;;;;;28.13;18.97;;;;;;;;;;3588074;40;20020;-67
2021/07/13 04:41:53;;;;;;;29.17;19.98;;;;;;;;;;3588830;40;20024;-67
2021/07/13 04:44:18;;;;;;;30.90;18.83;;;;;;;;;;3588777;40;20048;-67
2021/07/13 04:46:43;;;;;;;23.00;18.20;;;;;;;;;;3587744;40;20036;-67
2021/07/13 04:49:09;;;;;;;23.52;18.02;;;;;;;;;;3585579;40;20035;-67
2021/07/13 04:51:34;;;;;;;29.92;22.08;;;;;;;;;;3587776;40;20027;-67
2021/07/13 04:53:59;;;;;;;30.67;18.83;;;;;;;;;;3588148;40;20033;-67
2021/07/13 04:56:24;;;;;;;29.70;17.67;;;;;;;;;;3589591;40;20025;-67
2021/07/13 04:58:50;;;;;;;25.70;18.85;;;;;;;;;;3588228;40;20043;-67
2021/07/13 05:01:15;;;;;;;26.80;18.10;;;;;;;;;;3589339;40;20021;-67
2021/07/13 05:03:40;;;;;;;27.77;19.10;;;;;;;;;;3590580;39;20028;-67
2021/07/13 05:06:05;;;;;;;27.20;18.17;;;;;;;;;;3590879;40;20529;-66
2021/07/13 05:08:30;;;;;;;24.77;17.87;;;;;;;;;;3589156;40;20028;-66
2021/07/13 05:10:56;;;;;;;48.90;31.37;;;;;;;;;;3590036;39;20036;-67
2021/07/13 05:13:21;;;;;;;23.23;17.13;;;;;;;;;;3589547;40;20278;-66
2021/07/13 05:15:46;;;;;;;23.30;16.13;;;;;;;;;;3589744;40;20036;-66
2021/07/13 05:18:11;;;;;;;22.03;16.53;;;;;;;;;;3589368;40;20367;-66
2021/07/13 05:20:37;;;;;;;20.58;15.85;;;;;;;;;;3589590;39;20436;-66
2021/07/13 05:23:08;;;;;;;18.55;14.82;;;;;;;;;;3589535;39;20135;-66
2021/07/13 05:25:33;;;;;;;19.17;14.05;;;;;;;;;;3589955;39;20113;-66
2021/07/13 05:27:59;;;;;;;19.27;14.03;;;;;;;;;;3590273;40;20402;-66
2021/07/13 05:30:24;;;;;;;19.23;13.47;;;;;;;;;;3590083;40;20267;-66
2021/07/13 05:32:50;;;;;;;17.73;12.93;;;;;;;;;;3590554;40;20478;-66
2021/07/13 05:35:16;;;;;;;17.17;12.35;;;;;;;;;;3588126;40;20774;-66
2021/07/13 05:37:41;;;;;;;16.13;12.67;;;;;;;;;;3590346;40;20036;-66
2021/07/13 05:40:06;;;;;;;18.97;13.23;;;;;;;;;;3589246;39;20028;-66
2021/07/13 05:42:31;;;;;;;23.00;12.73;;;;;;;;;;3591037;40;20542;-67
2021/07/13 05:44:56;;;;;;;20.13;12.90;;;;;;;;;;3589893;40;20444;-66
2021/07/13 05:47:22;;;;;;;23.60;12.33;;;;;;;;;;3589687;40;20362;-67
2021/07/13 05:49:47;;;;;;;17.10;11.40;;;;;;;;;;3589895;39;20372;-67
2021/07/13 05:52:12;;;;;;;16.05;11.38;;;;;;;;;;3589385;39;20055;-67
2021/07/13 05:54:37;;;;;;;14.07;10.70;;;;;;;;;;3588659;40;20028;-66
2021/07/13 05:57:02;;;;;;;15.63;11.03;;;;;;;;;;3589481;40;21018;-62
2021/07/13 05:59:28;;;;;;;14.60;10.60;;;;;;;;;;3589249;40;20029;-62
2021/07/13 06:01:53;;;;;;;13.83;10.67;;;;;;;;;;3589478;40;20507;-62
2021/07/13 06:04:18;;;;;;;19.23;14.40;;;;;;;;;;3590122;39;20099;-62
2021/07/13 06:06:43;;;;;;;17.43;12.27;;;;;;;;;;3589731;39;20043;-61
2021/07/13 06:09:09;;;;;;;14.63;10.32;;;;;;;;;;3589769;39;20723;-62
2021/07/13 06:11:34;;;;;;;11.17;9.07;;;;;;;;;;3589206;40;20035;-62
2021/07/13 06:13:59;;;;;;;19.83;11.37;;;;;;;;;;3590410;39;20031;-62
2021/07/13 06:16:24;;;;;;;24.97;17.67;;;;;;;;;;3589783;39;20028;-62
2021/07/13 06:18:49;;;;;;;16.33;10.93;;;;;;;;;;3588930;40;20063;-61
2021/07/13 06:21:15;;;;;;;13.33;10.57;;;;;;;;;;3589972;40;20021;-67
2021/07/13 06:23:40;;;;;;;14.30;8.93;;;;;;;;;;3589693;40;20902;-67
2021/07/13 06:26:05;;;;;;;12.93;8.60;;;;;;;;;;3590561;40;20032;-67
2021/07/13 06:28:30;;;;;;;12.83;9.63;;;;;;;;;;3590054;40;20032;-67
2021/07/13 06:30:56;;;;;;;11.50;8.30;;;;;;;;;;3590308;40;20016;-67
2021/07/13 06:33:21;;;;;;;13.67;8.53;;;;;;;;;;3590277;40;20250;-67
2021/07/13 06:35:48;;;;;;;9.50;7.97;;;;;;;;;;3590677;40;20059;-67
2021/07/13 06:38:13;;;;;;;12.13;8.70;;;;;;;;;;3589926;39;20040;-67
2021/07/13 06:40:38;;;;;;;8.77;6.93;;;;;;;;;;3590314;40;20040;-71
2021/07/13 06:43:03;;;;;;;12.87;7.47;;;;;;;;;;3589332;40;20661;-71
2021/07/13 06:45:29;;;;;;;11.03;7.53;;;;;;;;;;3589588;40;20275;-72
2021/07/13 06:47:54;;;;;;;16.30;8.77;;;;;;;;;;3590424;40;20031;-71
2021/07/13 06:50:20;;;;;;;12.88;9.52;;;;;;;;;;3590684;39;20718;-71
2021/07/13 06:52:45;;;;;;;14.67;10.07;;;;;;;;;;3589301;40;20048;-72
2021/07/13 06:55:10;;;;;;;14.33;9.90;;;;;;;;;;3590498;40;20257;-71
2021/07/13 06:57:35;;;;;;;15.80;10.50;;;;;;;;;;3588430;40;20641;-71
2021/07/13 07:00:01;;;;;;;28.33;18.27;;;;;;;;;;3590874;39;20814;-71
2021/07/13 07:02:29;;;;;;;13.50;8.27;;;;;;;;;;3581329;40;20019;-71
2021/07/13 07:04:55;;;;;;;13.95;9.50;;;;;;;;;;3589891;40;20599;-71
2021/07/13 07:07:20;;;;;;;22.67;12.82;;;;;;;;;;3588583;40;20028;-71
2021/07/13 07:09:45;;;;;;;7.73;6.80;;;;;;;;;;3589937;40;20090;-71
2021/07/13 07:12:10;;;;;;;8.37;6.13;;;;;;;;;;3590075;40;20040;-71
2021/07/13 07:14:35;;;;;;;11.32;6.75;;;;;;;;;;3590217;40;20269;-71
2021/07/13 07:17:01;;;;;;;8.10;5.33;;;;;;;;;;3588277;40;20031;-70
2021/07/13 07:19:26;;;;;;;8.73;5.10;;;;;;;;;;3588800;40;20039;-71
2021/07/13 07:21:51;;;;;;;6.80;4.70;;;;;;;;;;3580014;40;20297;-71
2021/07/13 07:24:17;;;;;;;9.33;5.10;;;;;;;;;;3590114;40;20024;-71
2021/07/13 07:26:43;;;;;;;11.07;5.40;;;;;;;;;;3589616;39;20055;-71
2021/07/13 07:29:09;;;;;;;16.55;11.25;;;;;;;;;;3589472;40;20085;-71
2021/07/13 07:31:34;;;;;;;9.10;6.87;;;;;;;;;;3589827;39;20016;-71
2021/07/13 07:33:59;;;;;;;22.47;13.97;;;;;;;;;;3589659;40;20310;-71
2021/07/13 07:36:26;;;;;;;23.23;14.30;;;;;;;;;;3588495;40;20158;-70
2021/07/13 07:38:52;;;;;;;10.85;5.38;;;;;;;;;;3589849;39;20096;-71
2021/07/13 07:41:17;;;;;;;5.80;4.33;;;;;;;;;;3589315;39;20032;-71
2021/07/13 07:43:42;;;;;;;6.50;4.70;;;;;;;;;;3589907;40;20274;-71
2021/07/13 07:46:07;;;;;;;5.87;4.03;;;;;;;;;;3589763;40;20032;-71
2021/07/13 07:48:33;;;;;;;4.10;3.63;;;;;;;;;;3589086;40;20426;-71
2021/07/13 07:50:58;;;;;;;6.47;4.10;;;;;;;;;;3589120;40;20331;-71
2021/07/13 07:53:23;;;;;;;4.13;3.40;;;;;;;;;;3589802;40;20609;-71
2021/07/13 07:55:48;;;;;;;8.60;3.30;;;;;;;;;;3589520;40;20044;-71
2021/07/13 07:58:13;;;;;;;7.50;3.20;;;;;;;;;;3589992;40;20524;-71
2021/07/13 08:00:39;;;;;;;7.38;3.55;;;;;;;;;;3589505;39;20028;-71
2021/07/13 08:03:04;;;;;;;7.95;3.70;;;;;;;;;;3590568;39;20074;-71
2021/07/13 08:05:32;;;;;;;5.73;3.43;;;;;;;;;;3589016;40;20047;-72
2021/07/13 08:07:57;;;;;;;7.85;3.90;;;;;;;;;;3588198;40;20024;-71
2021/07/13 08:10:23;;;;;;;4.80;3.30;;;;;;;;;;3589539;40;20125;-72
2021/07/13 08:12:48;;;;;;;8.73;3.20;;;;;;;;;;3591142;40;20080;-68
2021/07/13 08:15:14;;;;;;;5.30;3.53;;;;;;;;;;3589397;40;20093;-66
2021/07/13 08:17:39;;;;;;;5.50;3.30;;;;;;;;;;3589180;40;20043;-66
2021/07/13 08:20:04;;;;;;;6.45;4.15;;;;;;;;;;3588833;39;20032;-66
2021/07/13 08:22:32;;;;;;;13.43;8.53;;;;;;;;;;3588823;40;20060;-66
2021/07/13 08:24:59;;;;;;;8.75;3.00;;;;;;;;;;3589212;39;20028;-66
2021/07/13 08:27:24;;;;;;;3.05;2.40;;;;;;;;;;3589381;39;20805;-66
2021/07/13 08:29:49;;;;;;;5.53;2.90;;;;;;;;;;3579295;40;20061;-67
2021/07/13 08:32:14;;;;;;;4.10;2.07;;;;;;;;;;3589678;40;20257;-67
2021/07/13 08:34:39;;;;;;;3.10;2.20;;;;;;;;;;3588525;40;20091;-66
2021/07/13 08:37:05;;;;;;;4.70;2.20;;;;;;;;;;3590262;39;20405;-67
2021/07/13 08:39:30;;;;;;;21.60;3.33;;;;;;;;;;3590385;39;20190;-66
2021/07/13 08:41:55;;;;;;;10.17;3.07;;;;;;;;;;3590056;40;20024;-67
2021/07/13 08:44:21;;;;;;;3.03;2.60;;;;;;;;;;3591267;40;20834;-67
2021/07/13 08:46:46;;;;;;;58.83;6.47;;;;;;;;;;3591173;40;20113;-67
2021/07/13 08:49:11;;;;;;;7.87;2.50;;;;;;;;;;3590693;40;20055;-67
2021/07/13 08:51:36;;;;;;;6.67;1.87;;;;;;;;;;3588768;40;20028;-67
2021/07/13 08:54:02;;;;;;;2.67;2.00;;;;;;;;;;3590923;40;20389;-67
2021/07/13 08:56:27;;;;;;;4.53;1.90;;;;;;;;;;3589180;40;20747;-66
2021/07/13 08:58:52;;;;;;;14.53;3.03;;;;;;;;;;3590280;40;20727;-66
2021/07/13 09:01:17;;;;;;;5.27;2.00;;;;;;;;;;3589021;40;20028;-67
2021/07/13 09:03:42;;;;;;;3.43;2.40;;;;;;;;;;3590563;39;20116;-67
2021/07/13 09:06:08;;;;;;;2.43;1.80;;;;;;;;;;3590257;40;20329;-67
2021/07/13 09:08:34;;;;;;;3.40;1.70;;;;;;;;;;3587996;40;20570;-69
2021/07/13 09:11:00;;;;;;;7.10;4.03;;;;;;;;;;3589394;39;20080;-67
2021/07/13 09:13:25;;;;;;;2.20;2.00;;;;;;;;;;3590044;39;20046;-67
2021/07/13 09:15:50;;;;;;;3.37;1.97;;;;;;;;;;3590325;40;20727;-67
2021/07/13 09:18:15;;;;;;;3.57;1.60;;;;;;;;;;3589192;40;20781;-67
2021/07/13 09:20:41;;;;;;;3.13;1.92;;;;;;;;;;3588184;40;20028;-67
2021/07/13 09:23:06;;;;;;;2.23;2.00;;;;;;;;;;3589816;40;20042;-67
2021/07/13 09:25:32;;;;;;;2.33;2.10;;;;;;;;;;3589905;39;20032;-68
2021/07/13 09:27:57;;;;;;;4.07;2.03;;;;;;;;;;3589477;40;20423;-66
2021/07/13 09:30:22;;;;;;;4.90;2.03;;;;;;;;;;3588851;40;20047;-67
2021/07/13 09:32:47;;;;;;;6.97;2.17;;;;;;;;;;3590470;40;20056;-62
2021/07/13 09:35:13;;;;;;;3.10;2.07;;;;;;;;;;3589367;40;20047;-62
2021/07/13 09:37:39;;;;;;;2.83;2.08;;;;;;;;;;3589104;40;20040;-62
2021/07/13 09:40:04;;;;;;;2.00;1.70;;;;;;;;;;3590086;40;20039;-62
2021/07/13 09:42:30;;;;;;;3.35;1.60;;;;;;;;;;3589180;40;20274;-62
2021/07/13 09:44:55;;;;;;;2.75;1.88;;;;;;;;;;3591005;40;20036;-62
2021/07/13 09:47:20;;;;;;;2.00;1.80;;;;;;;;;;3589844;40;20399;-62
2021/07/13 09:49:46;;;;;;;2.93;1.97;;;;;;;;;;3587855;40;20023;-62
2021/07/13 09:52:11;;;;;;;9.53;2.80;;;;;;;;;;3588976;40;20262;-62
2021/07/13 09:54:36;;;;;;;4.00;2.40;;;;;;;;;;3589317;39;20035;-62
2021/07/13 09:57:01;;;;;;;2.80;2.23;;;;;;;;;;3588538;40;20266;-62
2021/07/13 09:59:27;;;;;;;4.20;2.90;;;;;;;;;;3589470;40;20042;-62
2021/07/13 10:01:52;;;;;;;5.00;2.87;;;;;;;;;;3588203;40;20023;-62
2021/07/13 10:04:17;;;;;;;7.20;4.87;;;;;;;;;;3588321;40;20079;-62
2021/07/13 10:06:42;;;;;;;3.97;2.40;;;;;;;;;;3589660;40;20560;-62
2021/07/13 10:09:11;;;;;;;3.35;2.50;;;;;;;;;;3589635;40;20099;-62
2021/07/13 10:11:36;;;;;;;4.30;2.38;;;;;;;;;;3588851;39;20036;-63
2021/07/13 10:14:02;;;;;;;5.03;2.13;;;;;;;;;;3590114;40;20148;-62
2021/07/13 10:16:28;;;;;;;3.33;2.07;;;;;;;;;;3589668;40;20390;-62
2021/07/13 10:18:53;;;;;;;3.38;2.00;;;;;;;;;;3589672;39;20020;-62
2021/07/13 10:21:18;;;;;;;9.90;2.20;;;;;;;;;;3588736;40;20035;-62
2021/07/13 10:23:43;;;;;;;3.90;1.97;;;;;;;;;;3587708;40;20136;-62
2021/07/13 10:26:11;;;;;;;3.20;2.00;;;;;;;;;;3589370;40;20409;-62
2021/07/13 10:28:36;;;;;;;4.05;1.88;;;;;;;;;;3588899;40;20040;-62
2021/07/13 10:31:01;;;;;;;3.50;2.50;;;;;;;;;;3589076;40;20051;-62
2021/07/13 10:33:27;;;;;;;8.80;4.27;;;;;;;;;;3588284;40;20048;-62
2021/07/13 10:35:53;;;;;;;2.72;2.17;;;;;;;;;;3589745;39;20941;-62
2021/07/13 10:38:21;;;;;;;3.57;2.10;;;;;;;;;;3590699;40;20038;-61
2021/07/13 10:40:46;;;;;;;4.22;2.20;;;;;;;;;;3580005;40;20461;-61
2021/07/13 10:43:11;;;;;;;3.70;2.10;;;;;;;;;;3590937;40;20031;-62
2021/07/13 10:45:39;;;;;;;3.03;1.80;;;;;;;;;;3590907;40;20028;-62
2021/07/13 10:48:04;;;;;;;3.03;1.92;;;;;;;;;;3589374;40;20472;-62
2021/07/13 10:50:32;;;;;;;2.57;2.10;;;;;;;;;;3590084;40;20024;-62
2021/07/13 10:52:58;;;;;;;5.60;1.90;;;;;;;;;;3589427;40;20039;-62
2021/07/13 10:55:23;;;;;;;5.22;2.08;;;;;;;;;;3590422;39;20040;-62
2021/07/13 10:57:48;;;;;;;3.53;1.73;;;;;;;;;;3591151;40;20611;-62
2021/07/13 11:00:13;;;;;;;4.07;1.60;;;;;;;;;;3589614;39;20028;-62
2021/07/13 11:02:39;;;;;;;4.40;2.57;;;;;;;;;;3589355;40;20016;-61
2021/07/13 11:05:04;;;;;;;3.03;2.20;;;;;;;;;;3590646;40;20277;-61
2021/07/13 11:07:29;;;;;;;2.28;2.08;;;;;;;;;;3590406;40;20024;-62
2021/07/13 11:09:55;;;;;;;6.17;2.10;;;;;;;;;;3589906;40;20052;-62
2021/07/13 11:12:20;;;;;;;4.05;2.03;;;;;;;;;;3588224;40;20797;-62
2021/07/13 11:14:45;;;;;;;3.10;2.30;;;;;;;;;;3590493;40;20060;-62
2021/07/13 11:17:10;;;;;;;2.90;2.27;;;;;;;;;;3589756;40;20393;-62
2021/07/13 11:19:36;;;;;;;6.27;2.37;;;;;;;;;;3587937;40;20298;-62
2021/07/13 11:22:01;;;;;;;3.95;2.03;;;;;;;;;;3589517;40;20083;-63
2021/07/13 11:24:26;;;;;;;4.40;2.67;;;;;;;;;;3589688;40;20297;-62
2021/07/13 11:26:52;;;;;;;2.40;1.83;;;;;;;;;;3589899;39;20048;-62
2021/07/13 11:29:17;;;;;;;3.50;2.40;;;;;;;;;;3589952;39;20286;-62
2021/07/13 11:31:42;;;;;;;2.90;2.33;;;;;;;;;;3589821;40;20253;-62
2021/07/13 11:34:08;;;;;;;4.05;2.05;;;;;;;;;;3580130;40;20028;-62
2021/07/13 11:36:33;;;;;;;2.37;2.17;;;;;;;;;;3589424;40;20388;-62
2021/07/13 11:38:58;;;;;;;3.65;2.50;;;;;;;;;;3589810;40;20028;-62
2021/07/13 11:41:24;;;;;;;4.97;2.40;;;;;;;;;;3588972;40;20028;-62
2021/07/13 11:43:49;;;;;;;2.17;1.83;;;;;;;;;;3589537;40;20043;-62
2021/07/13 11:46:14;;;;;;;7.30;4.67;;;;;;;;;;3589741;40;20390;-62
2021/07/13 11:48:40;;;;;;;6.43;3.60;;;;;;;;;;3589065;39;20031;-62
2021/07/13 11:51:07;;;;;;;11.10;5.67;;;;;;;;;;3588851;40;20036;-62
2021/07/13 11:53:33;;;;;;;2.58;1.85;;;;;;;;;;3589210;39;20412;-62
2021/07/13 11:55:58;;;;;;;4.30;3.50;;;;;;;;;;3588219;40;20035;-62
2021/07/13 11:58:23;;;;;;;5.63;4.20;;;;;;;;;;3588624;40;20546;-62
2021/07/13 12:00:48;;;;;;;2.67;2.27;;;;;;;;;;3588228;40;20609;-62
2021/07/13 12:03:14;;;;;;;2.20;2.00;;;;;;;;;;3590511;40;20020;-62
2021/07/13 12:05:39;;;;;;;2.27;2.07;;;;;;;;;;3590822;40;20703;-62
2021/07/13 12:08:04;;;;;;;3.37;2.43;;;;;;;;;;3591534;40;20643;-61
2021/07/13 12:10:30;;;;;;;3.17;2.13;;;;;;;;;;3591100;40;20452;-61
2021/07/13 12:12:56;;;;;;;2.30;1.90;;;;;;;;;;3588751;39;20448;-62
2021/07/13 12:15:22;;;;;;;2.47;2.20;;;;;;;;;;3590769;40;20025;-66
2021/07/13 12:17:48;;;;;;;2.25;2.05;;;;;;;;;;3588700;39;20024;-67
2021/07/13 12:20:13;;;;;;;3.40;1.93;;;;;;;;;;3590670;40;20471;-66
2021/07/13 12:22:38;;;;;;;7.07;2.10;;;;;;;;;;3590578;40;20031;-71
2021/07/13 12:25:05;;;;;;;8.50;2.33;;;;;;;;;;3590917;40;20249;-68
2021/07/13 12:27:30;;;;;;;4.35;2.38;;;;;;;;;;3589526;40;20301;-66
2021/07/13 12:29:57;;;;;;;4.60;3.40;;;;;;;;;;3589792;40;20035;-67
2021/07/13 12:32:22;;;;;;;4.43;3.22;;;;;;;;;;3589812;39;20039;-67
2021/07/13 12:34:49;;;;;;;5.17;3.17;;;;;;;;;;3590933;40;20387;-67
2021/07/13 12:37:15;;;;;;;11.15;7.03;;;;;;;;;;3590149;39;20807;-67
2021/07/13 12:39:40;;;;;;;10.10;6.53;;;;;;;;;;3590020;40;20036;-67
2021/07/13 12:42:07;;;;;;;11.23;4.40;;;;;;;;;;3589361;40;20036;-67
2021/07/13 12:44:32;;;;;;;5.00;3.75;;;;;;;;;;3589451;39;20041;-68
2021/07/13 12:46:57;;;;;;;2.97;2.28;;;;;;;;;;3589133;39;20731;-67
2021/07/13 12:49:23;;;;;;;4.03;2.07;;;;;;;;;;3589560;40;20593;-67
2021/07/13 12:51:48;;;;;;;1.90;1.80;;;;;;;;;;3589007;40;20036;-66
2021/07/13 12:54:13;;;;;;;2.27;1.90;;;;;;;;;;3589819;40;20941;-67
2021/07/13 12:56:38;;;;;;;2.17;1.97;;;;;;;;;;3589518;40;20398;-67
2021/07/13 12:59:04;;;;;;;2.43;1.90;;;;;;;;;;3589059;40;20043;-66
2021/07/13 13:01:29;;;;;;;5.38;2.05;;;;;;;;;;3588514;39;20020;-67
2021/07/13 13:03:55;;;;;;;2.47;1.88;;;;;;;;;;3588196;40;20790;-67
2021/07/13 13:06:20;;;;;;;5.30;2.07;;;;;;;;;;3589177;40;20116;-67
2021/07/13 13:08:46;;;;;;;3.00;2.00;;;;;;;;;;3589375;40;20044;-67
2021/07/13 13:11:12;;;;;;;7.38;2.28;;;;;;;;;;3589104;39;20109;-67
2021/07/13 13:13:38;;;;;;;3.78;2.30;;;;;;;;;;3587770;40;20020;-67
2021/07/13 13:16:03;;;;;;;5.40;4.25;;;;;;;;;;3588638;40;20043;-67
2021/07/13 13:18:28;;;;;;;2.97;2.67;;;;;;;;;;3589405;40;20016;-66
2021/07/13 13:20:54;;;;;;;4.10;2.30;;;;;;;;;;3588921;40;20583;-67
2021/07/13 13:23:19;;;;;;;2.93;2.17;;;;;;;;;;3589326;39;20015;-67
2021/07/13 13:25:44;;;;;;;3.13;2.30;;;;;;;;;;3589275;40;20033;-66
2021/07/13 13:28:09;;;;;;;4.43;2.33;;;;;;;;;;3590881;40;20107;-67
2021/07/13 13:30:35;;;;;;;3.30;2.40;;;;;;;;;;3589891;40;20076;-67
2021/07/13 13:33:00;;;;;;;6.10;2.30;;;;;;;;;;3590142;40;20375;-62
2021/07/13 13:38:06;;;;;;;3.10;2.30;;;;;;;;;;3590214;40;20047;-62
2021/07/13 13:40:32;;;;;;;5.53;2.72;;;;;;;;;;3588902;40;20024;-62
2021/07/13 13:42:57;;;;;;;5.20;2.70;;;;;;;;;;3589359;40;20031;-62
2021/07/13 13:45:22;;;;;;;3.07;2.50;;;;;;;;;;3588598;40;20084;-62
2021/07/13 13:47:47;;;;;;;9.03;2.87;;;;;;;;;;3590771;39;20102;-62
2021/07/13 13:50:13;;;;;;;3.90;2.80;;;;;;;;;;3588025;40;20375;-62
2021/07/13 13:52:38;;;;;;;4.87;3.20;;;;;;;;;;3590403;39;20036;-62
2021/07/13 13:55:03;;;;;;;5.93;3.37;;;;;;;;;;3589631;40;20310;-62
2021/07/13 13:57:29;;;;;;;4.63;3.30;;;;;;;;;;3590012;40;20064;-62
2021/07/13 13:59:54;;;;;;;3.95;3.00;;;;;;;;;;3589991;40;20020;-62
2021/07/13 14:02:19;;;;;;;5.80;3.40;;;;;;;;;;3589262;40;20035;-62
2021/07/13 14:04:45;;;;;;;4.28;3.33;;;;;;;;;;3588908;40;20028;-62
2021/07/13 14:07:10;;;;;;;4.97;3.60;;;;;;;;;;3590720;40;20020;-62
2021/07/13 14:09:35;;;;;;;9.57;5.57;;;;;;;;;;3589960;40;20024;-62
2021/07/13 14:12:01;;;;;;;9.03;6.33;;;;;;;;;;3590558;40;20035;-62
2021/07/13 14:14:26;;;;;;;5.20;3.58;;;;;;;;;;3588395;40;20020;-62
2021/07/13 14:16:51;;;;;;;9.53;5.80;;;;;;;;;;3589628;40;20689;-62
2021/07/13 14:19:16;;;;;;;8.17;4.87;;;;;;;;;;3590563;40;20028;-62
2021/07/13 14:21:42;;;;;;;6.27;4.77;;;;;;;;;;3589774;40;20020;-62